createdAt,value
2023-02-08T00:00:09.955Z,102997.88
2023-02-08T00:01:14.966Z,102981.09
2023-02-08T00:02:18.371Z,102992.00
2023-02-08T00:03:22.156Z,102993.94
2023-02-08T00:04:26.274Z,103001.69
2023-02-08T00:05:28.940Z,102982.47
2023-02-08T00:06:31.004Z,102975.03
2023-02-08T00:07:33.758Z,102986.13
2023-02-08T00:08:36.222Z,102980.44
2023-02-08T00:09:38.922Z,102997.44
2023-02-08T00:10:40.927Z,103004.94
2023-02-08T00:11:43.736Z,102983.59
2023-02-08T00:12:45.439Z,102988.81
2023-02-08T00:13:48.073Z,102987.50
2023-02-08T00:14:49.828Z,103010.47
2023-02-08T00:15:54.614Z,103004.94
2023-02-08T00:16:56.330Z,103003.94
2023-02-08T00:18:00.497Z,102982.25
2023-02-08T00:19:02.137Z,102984.59
2023-02-08T00:20:05.346Z,102973.81
2023-02-08T00:21:09.075Z,102979.25
2023-02-08T00:22:11.877Z,102965.09
2023-02-08T00:23:14.595Z,102975.31
2023-02-08T00:24:17.566Z,102974.28
2023-02-08T00:25:19.299Z,102992.09
2023-02-08T00:26:21.967Z,102993.22
2023-02-08T00:27:23.736Z,102992.50
2023-02-08T00:28:26.575Z,102984.50
2023-02-08T00:29:28.287Z,102990.78
2023-02-08T00:30:30.967Z,102975.31
2023-02-08T00:31:32.755Z,102983.91
2023-02-08T00:32:35.878Z,102961.47
2023-02-08T00:33:39.873Z,102980.53
2023-02-08T00:34:41.695Z,102978.59
2023-02-08T00:35:44.397Z,102980.75
2023-02-08T00:36:46.094Z,102970.69
2023-02-08T00:37:48.711Z,102983.78
2023-02-08T00:38:50.505Z,102985.00
2023-02-08T00:39:53.432Z,102974.44
2023-02-08T00:40:55.306Z,102975.91
2023-02-08T00:41:57.966Z,102978.19
2023-02-08T00:42:59.562Z,102979.66
2023-02-08T00:44:02.604Z,102986.81
2023-02-08T00:45:05.070Z,102973.34
2023-02-08T00:46:08.180Z,102977.13
2023-02-08T00:47:09.866Z,102975.31
2023-02-08T00:48:12.542Z,102990.22
2023-02-08T00:49:16.330Z,102986.69
2023-02-08T00:50:18.973Z,102992.88
2023-02-08T00:51:20.736Z,102999.03
2023-02-08T00:52:23.477Z,102973.31
2023-02-08T00:53:25.346Z,102996.34
2023-02-08T00:54:28.060Z,102975.63
2023-02-08T00:55:29.870Z,102967.78
2023-02-08T00:56:32.785Z,102991.25
2023-02-08T00:57:35.753Z,102987.84
2023-02-08T00:58:39.171Z,102982.78
2023-02-08T00:59:40.819Z,102972.25
2023-02-08T01:00:43.482Z,102995.22
2023-02-08T01:01:45.695Z,102986.97
2023-02-08T01:02:48.305Z,102995.50
2023-02-08T01:03:49.958Z,102991.88
2023-02-08T01:04:53.896Z,102998.03
2023-02-08T01:06:00.799Z,102995.13
2023-02-08T01:07:03.495Z,102986.22
2023-02-08T01:08:07.992Z,103007.81
2023-02-08T01:09:10.615Z,102983.66
2023-02-08T01:10:12.903Z,103010.28
2023-02-08T01:11:18.737Z,102991.41
2023-02-08T01:12:20.380Z,102993.22
2023-02-08T01:13:23.139Z,102985.13
2023-02-08T01:14:25.529Z,102984.56
2023-02-08T01:15:28.545Z,102994.31
2023-02-08T01:16:32.326Z,103002.75
2023-02-08T01:17:35.152Z,103000.56
2023-02-08T01:18:37.638Z,102985.03
2023-02-08T01:19:42.600Z,102996.66
2023-02-08T01:20:45.806Z,102996.31
2023-02-08T01:21:49.211Z,102997.31
2023-02-08T01:22:50.987Z,102995.38
2023-02-08T01:23:53.862Z,102978.03
2023-02-08T01:24:55.529Z,102996.81
2023-02-08T01:25:58.176Z,102994.41
2023-02-08T01:27:01.225Z,102993.13
2023-02-08T01:28:02.907Z,103002.13
2023-02-08T01:29:05.814Z,102989.78
2023-02-08T01:30:09.444Z,102975.19
2023-02-08T01:31:14.485Z,102997.78
2023-02-08T01:32:17.233Z,102976.03
2023-02-08T01:33:18.965Z,103006.59
2023-02-08T01:34:21.841Z,103000.94
2023-02-08T01:35:26.629Z,103001.56
2023-02-08T01:36:32.356Z,102989.31
2023-02-08T01:37:36.911Z,102987.47
2023-02-08T01:38:40.277Z,102987.78
2023-02-08T01:39:41.818Z,103013.38
2023-02-08T01:40:44.445Z,103007.56
2023-02-08T01:41:47.134Z,103009.53
2023-02-08T01:42:49.768Z,103008.28
2023-02-08T01:44:43.246Z,103006.50
2023-02-08T01:45:44.928Z,103012.78
2023-02-08T01:46:51.208Z,103004.81
2023-02-08T01:47:56.709Z,103002.50
2023-02-08T01:49:03.430Z,103018.81
2023-02-08T01:50:05.545Z,103009.50
2023-02-08T01:51:13.565Z,103008.88
2023-02-08T01:52:20.550Z,102997.81
2023-02-08T01:53:26.791Z,103009.69
2023-02-08T01:54:32.716Z,102984.16
2023-02-08T01:55:39.822Z,103012.53
2023-02-08T01:56:46.002Z,103013.66
2023-02-08T01:57:52.725Z,103013.25
2023-02-08T01:59:00.992Z,103010.28
2023-02-08T02:00:08.595Z,103009.75
2023-02-08T02:01:14.572Z,102992.88
2023-02-08T02:02:20.905Z,102977.47
2023-02-08T02:03:23.886Z,103003.78
2023-02-08T02:04:27.316Z,103003.81
2023-02-08T02:05:34.410Z,102976.59
2023-02-08T02:06:40.282Z,102996.25
2023-02-08T02:07:43.943Z,102989.84
2023-02-08T02:08:52.854Z,102972.47
2023-02-08T02:10:03.143Z,102997.94
2023-02-08T02:11:06.042Z,102978.81
2023-02-08T02:12:09.108Z,102983.00
2023-02-08T02:13:14.820Z,102986.03
2023-02-08T02:14:17.135Z,102979.75
2023-02-08T02:15:19.901Z,102997.94
2023-02-08T02:16:21.862Z,102986.84
2023-02-08T02:17:24.729Z,102988.44
2023-02-08T02:18:29.178Z,102985.53
2023-02-08T02:19:41.232Z,102988.09
2023-02-08T02:21:02.651Z,102977.38
2023-02-08T02:22:20.860Z,102971.41
2023-02-08T02:24:08.501Z,102990.66
2023-02-08T02:25:43.904Z,102990.97
2023-02-08T02:27:15.044Z,102993.53
2023-02-08T02:28:44.424Z,102994.13
2023-02-08T02:30:10.236Z,102987.94
2023-02-08T02:31:31.221Z,102979.34
2023-02-08T02:32:46.148Z,103008.75
2023-02-08T02:33:59.356Z,102996.25
2023-02-08T02:35:08.161Z,102986.94
2023-02-08T02:36:20.063Z,102991.91
2023-02-08T02:37:32.124Z,102967.06
2023-02-08T02:38:46.435Z,102979.88
2023-02-08T02:39:59.011Z,102995.53
2023-02-08T02:41:14.383Z,102979.75
2023-02-08T02:42:46.210Z,102993.41
2023-02-08T02:43:54.238Z,102992.09
2023-02-08T02:45:11.512Z,102991.28
2023-02-08T02:46:22.706Z,102990.63
2023-02-08T02:47:42.598Z,102998.06
2023-02-08T02:48:50.506Z,102986.97
2023-02-08T02:49:58.589Z,102979.59
2023-02-08T02:51:07.208Z,102988.91
2023-02-08T02:52:16.080Z,102981.53
2023-02-08T02:53:23.697Z,102975.53
2023-02-08T02:54:33.251Z,102991.25
2023-02-08T02:55:44.220Z,102969.09
2023-02-08T02:56:50.004Z,102977.59
2023-02-08T02:57:55.164Z,102974.56
2023-02-08T02:59:03.024Z,102969.88
2023-02-08T03:00:08.606Z,102991.38
2023-02-08T03:01:11.344Z,102995.56
2023-02-08T03:02:14.145Z,102991.63
2023-02-08T03:03:22.365Z,102969.97
2023-02-08T03:04:50.161Z,102982.75
2023-02-08T03:05:55.447Z,102983.13
2023-02-08T03:07:06.469Z,102969.34
2023-02-08T03:08:27.907Z,102984.06
2023-02-08T03:09:47.786Z,102982.03
2023-02-08T03:11:02.006Z,102989.34
2023-02-08T03:12:16.858Z,102972.22
2023-02-08T03:13:28.439Z,102990.56
2023-02-08T03:14:39.353Z,102982.63
2023-02-08T03:15:52.880Z,102961.19
2023-02-08T03:17:35.237Z,102990.69
2023-02-08T03:18:51.750Z,102997.69
2023-02-08T03:20:05.296Z,102992.41
2023-02-08T03:21:11.601Z,102981.47
2023-02-08T03:22:17.630Z,102983.53
2023-02-08T03:23:24.453Z,102978.84
2023-02-08T03:24:33.967Z,102993.50
2023-02-08T03:25:45.636Z,102997.09
2023-02-08T03:26:54.253Z,102989.72
2023-02-08T03:28:06.440Z,102998.00
2023-02-08T03:29:17.994Z,102982.25
2023-02-08T03:30:29.298Z,102979.41
2023-02-08T03:31:38.400Z,102986.56
2023-02-08T03:32:44.751Z,102996.03
2023-02-08T03:33:53.299Z,102998.25
2023-02-08T03:35:01.944Z,103008.53
2023-02-08T03:36:07.933Z,103005.03
2023-02-08T03:37:15.913Z,103008.19
2023-02-08T03:38:22.812Z,103006.81
2023-02-08T03:39:28.814Z,103005.75
2023-02-08T03:40:36.237Z,103005.69
2023-02-08T03:41:43.064Z,103006.06
2023-02-08T03:42:48.879Z,103011.88
2023-02-08T03:43:54.810Z,103010.16
2023-02-08T03:45:02.673Z,103007.31
2023-02-08T03:46:11.014Z,103000.16
2023-02-08T03:47:18.590Z,102993.47
2023-02-08T03:48:25.428Z,102999.97
2023-02-08T03:49:38.410Z,103010.72
2023-02-08T03:50:42.898Z,103008.53
2023-02-08T03:51:47.493Z,103012.56
2023-02-08T03:52:52.813Z,103009.72
2023-02-08T03:53:57.615Z,103020.59
2023-02-08T03:55:05.144Z,103001.19
2023-02-08T03:56:11.044Z,103012.34
2023-02-08T03:57:18.918Z,103017.47
2023-02-08T03:58:26.595Z,103019.81
2023-02-08T03:59:33.577Z,103017.28
2023-02-08T04:00:39.990Z,103023.50
2023-02-08T04:01:44.854Z,103016.84
2023-02-08T04:02:57.470Z,103016.69
2023-02-08T04:04:00.913Z,103001.59
2023-02-08T04:05:06.391Z,103013.56
2023-02-08T04:06:07.998Z,102994.56
2023-02-08T04:07:11.143Z,103005.38
2023-02-08T04:08:12.820Z,103014.75
2023-02-08T04:09:15.875Z,103013.53
2023-02-08T04:10:17.916Z,103009.78
2023-02-08T04:11:20.811Z,103002.13
2023-02-08T04:12:22.492Z,103007.41
2023-02-08T04:13:24.991Z,103003.31
2023-02-08T04:14:26.615Z,103000.88
2023-02-08T04:15:29.312Z,103009.09
2023-02-08T04:16:31.082Z,102995.41
2023-02-08T04:17:33.895Z,102998.69
2023-02-08T04:18:35.432Z,102975.91
2023-02-08T04:19:39.718Z,102993.63
2023-02-08T04:20:42.766Z,103003.75
2023-02-08T04:21:45.416Z,102999.91
2023-02-08T04:22:46.988Z,102998.47
2023-02-08T04:23:49.496Z,103007.88
2023-02-08T04:24:51.019Z,103010.41
2023-02-08T04:25:56.884Z,103004.13
2023-02-08T04:26:58.539Z,102986.09
2023-02-08T04:28:01.380Z,102988.41
2023-02-08T04:29:03.238Z,102999.72
2023-02-08T04:30:06.787Z,102997.56
2023-02-08T04:31:08.498Z,103003.34
2023-02-08T04:32:11.916Z,102999.84
2023-02-08T04:33:14.980Z,102991.78
2023-02-08T04:34:17.522Z,103001.59
2023-02-08T04:35:19.194Z,102993.72
2023-02-08T04:36:23.281Z,102983.75
2023-02-08T04:37:24.928Z,103003.72
2023-02-08T04:38:27.681Z,102996.38
2023-02-08T04:39:29.573Z,102993.75
2023-02-08T04:40:32.675Z,102999.69
2023-02-08T04:41:34.235Z,102993.78
2023-02-08T04:42:36.819Z,102973.28
2023-02-08T04:43:38.413Z,102992.97
2023-02-08T04:44:41.028Z,102986.91
2023-02-08T04:45:42.708Z,102990.31
2023-02-08T04:46:45.540Z,102977.81
2023-02-08T04:47:47.267Z,102988.91
2023-02-08T04:48:49.865Z,102994.63
2023-02-08T04:49:51.551Z,102985.00
2023-02-08T04:50:56.393Z,102978.59
2023-02-08T04:51:59.398Z,102972.31
2023-02-08T04:53:02.000Z,102966.97
2023-02-08T04:54:03.560Z,102985.69
2023-02-08T04:55:06.910Z,102985.72
2023-02-08T04:56:08.614Z,102979.94
2023-02-08T04:57:13.574Z,102977.38
2023-02-08T04:58:15.230Z,102980.13
2023-02-08T04:59:18.410Z,102988.19
2023-02-08T05:00:20.105Z,102988.91
2023-02-08T05:01:22.698Z,102978.63
2023-02-08T05:02:24.232Z,102982.44
2023-02-08T05:03:26.714Z,102972.63
2023-02-08T05:04:28.389Z,102977.50
2023-02-08T05:05:31.861Z,102972.13
2023-02-08T05:06:33.847Z,102958.03
2023-02-08T05:07:37.893Z,102978.03
2023-02-08T05:08:39.429Z,102985.41
2023-02-08T05:09:42.190Z,102970.53
2023-02-08T05:10:45.409Z,102961.25
2023-02-08T05:11:47.917Z,102975.25
2023-02-08T05:12:49.473Z,102969.34
2023-02-08T05:13:52.824Z,102977.59
2023-02-08T05:14:54.480Z,102971.06
2023-02-08T05:15:57.084Z,102970.16
2023-02-08T05:16:58.765Z,102954.84
2023-02-08T05:18:04.284Z,102972.84
2023-02-08T05:19:06.828Z,102965.94
2023-02-08T05:20:10.027Z,102977.22
2023-02-08T05:21:12.960Z,102973.59
2023-02-08T05:22:14.630Z,102974.31
2023-02-08T05:23:18.628Z,102975.06
2023-02-08T05:24:20.235Z,102962.66
2023-02-08T05:25:23.137Z,102941.50
2023-02-08T05:26:24.783Z,102967.25
2023-02-08T05:27:27.521Z,102971.09
2023-02-08T05:28:29.139Z,102979.03
2023-02-08T05:29:33.445Z,102968.50
2023-02-08T05:30:35.067Z,102980.81
2023-02-08T05:31:37.966Z,102972.28
2023-02-08T05:32:39.710Z,102982.16
2023-02-08T05:33:42.465Z,102979.28
2023-02-08T05:34:44.391Z,102972.72
2023-02-08T05:35:47.373Z,102965.69
2023-02-08T05:36:48.986Z,102970.03
2023-02-08T05:37:51.543Z,102980.13
2023-02-08T05:38:54.766Z,102980.13
2023-02-08T05:39:57.243Z,102991.34
2023-02-08T05:41:01.696Z,102984.44
2023-02-08T05:42:04.810Z,102984.63
2023-02-08T05:43:06.429Z,102990.63
2023-02-08T05:44:08.997Z,102986.44
2023-02-08T05:45:10.670Z,102977.63
2023-02-08T05:46:13.216Z,102967.66
2023-02-08T05:47:18.614Z,102980.53
2023-02-08T05:48:20.495Z,102989.59
2023-02-08T05:49:23.183Z,102990.97
2023-02-08T05:50:24.884Z,102969.47
2023-02-08T05:51:27.891Z,102983.03
2023-02-08T05:52:29.509Z,102983.34
2023-02-08T05:53:32.381Z,102981.53
2023-02-08T05:54:35.660Z,102981.53
2023-02-08T05:55:38.309Z,102970.50
2023-02-08T05:56:39.829Z,102979.97
2023-02-08T05:57:42.372Z,102972.31
2023-02-08T05:58:43.983Z,102978.47
2023-02-08T05:59:46.642Z,102971.84
2023-02-08T06:00:48.399Z,102971.63
2023-02-08T06:01:51.264Z,102979.19
2023-02-08T06:02:53.114Z,102959.22
2023-02-08T06:03:55.794Z,102982.03
2023-02-08T06:04:58.310Z,102973.97
2023-02-08T06:06:00.826Z,102972.41
2023-02-08T06:07:03.428Z,102981.72
2023-02-08T06:08:05.929Z,102989.06
2023-02-08T06:09:08.429Z,102978.06
2023-02-08T06:10:11.738Z,102988.38
2023-02-08T06:11:14.543Z,102977.38
2023-02-08T06:12:16.082Z,102977.03
2023-02-08T06:13:18.594Z,102984.16
2023-02-08T06:14:20.491Z,102986.09
2023-02-08T06:15:23.224Z,102989.91
2023-02-08T06:16:28.705Z,102976.88
2023-02-08T06:17:30.264Z,102995.41
2023-02-08T06:18:32.937Z,102995.25
2023-02-08T06:19:34.506Z,102987.03
2023-02-08T06:20:37.073Z,102996.28
2023-02-08T06:21:39.627Z,102983.91
2023-02-08T06:22:42.268Z,102984.00
2023-02-08T06:23:44.901Z,102992.13
2023-02-08T06:24:47.832Z,102980.09
2023-02-08T06:25:52.655Z,102996.56
2023-02-08T06:26:54.309Z,102978.31
2023-02-08T06:27:57.575Z,102986.56
2023-02-08T06:28:59.302Z,102986.41
2023-02-08T06:30:01.800Z,102997.59
2023-02-08T06:31:03.811Z,102988.63
2023-02-08T06:32:06.962Z,102991.88
2023-02-08T06:33:08.641Z,102992.66
2023-02-08T06:34:11.264Z,102987.22
2023-02-08T06:35:14.074Z,102990.34
2023-02-08T06:36:15.749Z,102992.34
2023-02-08T06:37:18.911Z,102996.63
2023-02-08T06:38:20.754Z,102976.47
2023-02-08T06:39:23.802Z,102971.72
2023-02-08T06:40:25.586Z,102986.56
2023-02-08T06:41:29.529Z,102994.03
2023-02-08T06:42:32.059Z,102982.19
2023-02-08T06:43:33.756Z,102990.66
2023-02-08T06:44:36.526Z,102981.63
2023-02-08T06:45:39.179Z,102993.56
2023-02-08T06:46:41.909Z,102988.91
2023-02-08T06:47:43.739Z,102985.41
2023-02-08T06:48:46.364Z,102988.69
2023-02-08T06:49:48.983Z,102976.69
2023-02-08T06:50:52.296Z,102997.72
2023-02-08T06:51:55.043Z,102976.06
2023-02-08T06:52:57.842Z,102983.75
2023-02-08T06:53:59.522Z,102988.69
2023-02-08T06:55:02.090Z,102977.94
2023-02-08T06:56:03.995Z,102996.38
2023-02-08T06:57:08.406Z,102990.59
2023-02-08T06:58:11.222Z,102979.66
2023-02-08T06:59:13.817Z,102991.91
2023-02-08T07:00:16.781Z,102997.53
2023-02-08T07:01:20.442Z,102989.25
2023-02-08T07:02:23.363Z,102982.19
2023-02-08T07:03:24.894Z,102979.06
2023-02-08T07:04:27.531Z,102974.34
2023-02-08T07:05:30.116Z,102984.44
2023-02-08T07:06:32.984Z,102987.19
2023-02-08T07:07:34.622Z,103001.19
2023-02-08T07:08:37.199Z,102994.34
2023-02-08T07:09:39.954Z,102983.53
2023-02-08T07:10:41.792Z,102998.47
2023-02-08T07:11:47.446Z,102994.09
2023-02-08T07:12:51.285Z,102993.34
2023-02-08T07:13:54.497Z,102994.19
2023-02-08T07:14:57.084Z,103001.31
2023-02-08T07:15:58.713Z,103005.56
2023-02-08T07:17:01.487Z,103007.03
2023-02-08T07:18:04.375Z,103013.19
2023-02-08T07:19:08.058Z,102993.56
2023-02-08T07:20:14.320Z,103009.53
2023-02-08T07:21:16.150Z,103006.34
2023-02-08T07:22:18.844Z,103002.66
2023-02-08T07:23:20.408Z,103016.47
2023-02-08T07:24:23.473Z,102984.38
2023-02-08T07:25:26.251Z,102986.06
2023-02-08T07:26:28.915Z,102991.91
2023-02-08T07:27:30.517Z,102976.94
2023-02-08T07:28:34.634Z,102979.09
2023-02-08T07:29:37.876Z,102992.53
2023-02-08T07:30:40.962Z,102989.53
2023-02-08T07:31:43.838Z,102995.78
2023-02-08T07:32:45.526Z,103001.81
2023-02-08T07:33:48.088Z,103006.91
2023-02-08T07:34:50.803Z,102999.72
2023-02-08T07:35:53.627Z,102999.06
2023-02-08T07:36:56.335Z,103013.50
2023-02-08T07:38:02.436Z,102992.66
2023-02-08T07:39:05.210Z,103001.78
2023-02-08T07:40:08.509Z,103011.94
2023-02-08T07:41:13.434Z,103009.66
2023-02-08T07:42:16.004Z,103010.31
2023-02-08T07:43:18.519Z,102995.00
2023-02-08T07:44:21.480Z,102999.63
2023-02-08T07:45:24.204Z,103001.66
2023-02-08T07:46:26.930Z,103011.91
2023-02-08T07:47:31.970Z,102978.41
2023-02-08T07:48:34.080Z,102987.72
2023-02-08T07:49:36.908Z,103003.38
2023-02-08T07:50:38.667Z,102979.69
2023-02-08T07:51:41.396Z,102973.94
2023-02-08T07:52:45.849Z,102985.72
2023-02-08T07:53:48.473Z,102985.88
2023-02-08T07:54:51.008Z,102982.22
2023-02-08T07:55:53.529Z,102999.81
2023-02-08T07:56:55.561Z,102992.59
2023-02-08T07:57:58.664Z,102988.53
2023-02-08T07:59:00.258Z,102988.16
2023-02-08T08:00:05.808Z,103008.22
2023-02-08T08:01:21.297Z,103006.97
2023-02-08T08:02:24.882Z,102991.59
2023-02-08T08:03:27.560Z,102992.41
2023-02-08T08:04:30.110Z,103007.19
2023-02-08T08:05:33.787Z,102981.78
2023-02-08T08:06:36.448Z,102980.00
2023-02-08T08:07:39.092Z,102991.16
2023-02-08T08:08:42.384Z,103005.56
2023-02-08T08:09:43.975Z,102993.34
2023-02-08T08:10:46.535Z,103002.81
2023-02-08T08:11:49.128Z,103003.66
2023-02-08T08:12:51.656Z,102984.22
2023-02-08T08:13:54.524Z,102976.53
2023-02-08T08:14:57.114Z,102994.69
2023-02-08T08:16:01.112Z,102979.97
2023-02-08T08:17:03.583Z,103005.06
2023-02-08T08:18:06.171Z,102993.84
2023-02-08T08:19:08.697Z,102982.19
2023-02-08T08:20:11.312Z,103005.47
2023-02-08T08:21:15.330Z,103006.75
2023-02-08T08:22:21.055Z,103002.66
2023-02-08T08:23:23.885Z,103006.28
2023-02-08T08:24:27.002Z,102999.28
2023-02-08T08:25:28.733Z,103000.59
2023-02-08T08:26:31.371Z,102986.97
2023-02-08T08:27:33.052Z,102989.13
2023-02-08T08:28:35.702Z,102982.53
2023-02-08T08:29:38.234Z,102980.28
2023-02-08T08:30:44.030Z,102993.66
2023-02-08T08:31:48.270Z,102991.66
2023-02-08T08:32:49.829Z,102996.81
2023-02-08T08:33:52.607Z,102992.66
2023-02-08T08:34:56.659Z,102985.88
2023-02-08T08:35:59.219Z,102992.19
2023-02-08T08:37:03.032Z,102997.41
2023-02-08T08:38:05.611Z,102993.22
2023-02-08T08:39:08.169Z,102992.38
2023-02-08T08:40:11.613Z,103008.00
2023-02-08T08:41:17.080Z,102988.94
2023-02-08T08:42:21.032Z,102990.06
2023-02-08T08:43:23.765Z,102990.81
2023-02-08T08:44:28.320Z,102987.53
2023-02-08T08:45:30.107Z,102997.34
2023-02-08T08:46:32.729Z,102997.69
2023-02-08T08:47:36.696Z,102991.06
2023-02-08T08:48:39.700Z,102996.34
2023-02-08T08:49:42.849Z,102984.38
2023-02-08T08:50:44.528Z,102992.25
2023-02-08T08:51:47.461Z,102998.22
2023-02-08T08:52:50.174Z,102991.91
2023-02-08T08:53:52.965Z,103007.88
2023-02-08T08:54:54.572Z,103004.34
2023-02-08T08:55:57.200Z,102996.50
2023-02-08T08:57:04.226Z,103001.56
2023-02-08T08:58:06.853Z,103001.56
2023-02-08T08:59:11.753Z,102992.63
2023-02-08T09:00:15.579Z,102993.94
2023-02-08T09:01:18.415Z,103010.22
2023-02-08T09:02:21.034Z,102979.50
2023-02-08T09:03:25.010Z,102990.66
2023-02-08T09:04:28.110Z,103004.63
2023-02-08T09:05:30.962Z,103005.34
2023-02-08T09:06:33.729Z,102994.44
2023-02-08T09:07:35.603Z,102992.38
2023-02-08T09:08:38.330Z,102998.91
2023-02-08T09:09:41.825Z,103005.09
2023-02-08T09:10:46.941Z,103009.91
2023-02-08T09:11:50.784Z,103015.31
2023-02-08T09:12:54.013Z,103009.09
2023-02-08T09:13:56.367Z,103003.03
2023-02-08T09:14:59.139Z,102991.94
2023-02-08T09:16:06.156Z,102986.44
2023-02-08T09:17:09.110Z,103018.91
2023-02-08T09:18:11.710Z,102978.91
2023-02-08T09:19:16.595Z,102998.53
2023-02-08T09:20:19.524Z,103006.19
2023-02-08T09:21:25.348Z,102983.91
2023-02-08T09:22:29.242Z,103001.06
2023-02-08T09:23:33.628Z,102995.47
2023-02-08T09:24:36.777Z,102979.66
2023-02-08T09:25:41.472Z,102982.25
2023-02-08T09:26:46.900Z,102994.09
2023-02-08T09:27:49.826Z,103002.94
2023-02-08T09:28:52.509Z,102995.00
2023-02-08T09:29:56.717Z,103000.97
2023-02-08T09:31:11.912Z,103002.31
2023-02-08T09:32:24.623Z,103003.50
2023-02-08T09:33:27.579Z,102998.78
2023-02-08T09:34:33.835Z,102996.19
2023-02-08T09:35:35.702Z,103003.81
2023-02-08T09:36:43.509Z,102986.13
2023-02-08T09:37:46.272Z,103002.84
2023-02-08T09:38:51.702Z,102994.38
2023-02-08T09:39:54.446Z,102978.59
2023-02-08T09:41:10.980Z,103006.63
2023-02-08T09:42:23.815Z,102986.81
2023-02-08T09:43:35.583Z,102994.78
2023-02-08T09:44:48.346Z,103000.19
2023-02-08T09:46:00.175Z,102985.72
2023-02-08T09:47:11.158Z,102990.03
2023-02-08T09:48:22.808Z,102995.47
2023-02-08T09:49:29.681Z,102982.47
2023-02-08T09:50:41.161Z,102999.84
2023-02-08T09:51:48.655Z,102999.53
2023-02-08T09:52:59.232Z,103000.59
2023-02-08T09:54:07.212Z,103003.69
2023-02-08T09:55:31.092Z,102995.50
2023-02-08T09:56:40.439Z,102993.59
2023-02-08T09:57:46.814Z,102989.72
2023-02-08T09:58:52.853Z,103005.28
2023-02-08T09:59:59.265Z,102985.13
2023-02-08T10:01:05.933Z,102990.25
2023-02-08T10:02:19.502Z,102988.28
2023-02-08T10:03:34.834Z,102975.88
2023-02-08T10:04:45.798Z,102998.16
2023-02-08T10:05:51.129Z,102970.38
2023-02-08T10:06:53.885Z,102983.91
2023-02-08T10:07:56.582Z,102987.84
2023-02-08T10:09:03.162Z,102995.75
2023-02-08T10:10:08.142Z,102993.34
2023-02-08T10:11:28.351Z,103000.88
2023-02-08T10:12:44.107Z,102998.28
2023-02-08T10:14:05.386Z,102997.50
2023-02-08T10:15:23.102Z,102999.75
2023-02-08T10:16:43.828Z,102981.56
2023-02-08T10:18:02.466Z,102997.44
2023-02-08T10:19:15.794Z,102996.75
2023-02-08T10:20:34.443Z,102986.56
2023-02-08T10:21:53.539Z,102975.97
2023-02-08T10:23:05.142Z,102978.56
2023-02-08T10:24:35.280Z,102971.22
2023-02-08T10:26:07.895Z,102985.53
2023-02-08T10:27:17.300Z,102979.16
2023-02-08T10:28:50.856Z,102977.56
2023-02-08T10:30:07.267Z,102976.34
2023-02-08T10:31:21.159Z,102983.66
2023-02-08T10:32:40.995Z,102973.28
2023-02-08T10:33:51.548Z,102964.31
2023-02-08T10:34:59.109Z,102968.56
2023-02-08T10:36:01.939Z,102968.44
2023-02-08T10:37:15.499Z,102973.28
2023-02-08T10:38:25.404Z,102967.28
2023-02-08T10:39:31.903Z,102955.97
2023-02-08T10:40:39.489Z,102971.97
2023-02-08T10:41:42.715Z,102963.06
2023-02-08T10:42:53.113Z,102959.72
2023-02-08T10:44:04.014Z,102962.75
2023-02-08T10:45:23.967Z,102961.13
2023-02-08T10:46:36.791Z,102953.16
2023-02-08T10:47:45.875Z,102957.97
2023-02-08T10:49:01.668Z,102948.25
2023-02-08T10:50:07.700Z,102948.69
2023-02-08T10:51:13.719Z,102938.53
2023-02-08T10:52:18.332Z,102947.44
2023-02-08T10:53:21.880Z,102950.19
2023-02-08T10:54:24.712Z,102925.44
2023-02-08T10:55:28.056Z,102938.75
2023-02-08T10:56:41.022Z,102939.94
2023-02-08T10:57:48.407Z,102914.47
2023-02-08T10:58:51.284Z,102931.38
2023-02-08T10:59:58.858Z,102939.69
2023-02-08T11:01:01.597Z,102927.47
2023-02-08T11:02:18.935Z,102928.22
2023-02-08T11:03:24.349Z,102936.19
2023-02-08T11:04:27.318Z,102942.50
2023-02-08T11:05:35.389Z,102935.88
2023-02-08T11:06:41.340Z,102929.91
2023-02-08T11:07:46.307Z,102923.66
2023-02-08T11:08:56.284Z,102932.22
2023-02-08T11:10:22.480Z,102920.69
2023-02-08T11:11:27.019Z,102917.22
2023-02-08T11:12:32.031Z,102918.88
2023-02-08T11:13:43.526Z,102933.94
2023-02-08T11:14:54.074Z,102933.66
2023-02-08T11:15:59.193Z,102935.44
2023-02-08T11:17:05.375Z,102915.97
2023-02-08T11:18:18.555Z,102926.13
2023-02-08T11:19:30.513Z,102915.81
2023-02-08T11:20:36.847Z,102908.13
2023-02-08T11:21:42.442Z,102916.91
2023-02-08T11:22:47.823Z,102904.47
2023-02-08T11:23:53.705Z,102924.38
2023-02-08T11:24:59.183Z,102908.41
2023-02-08T11:26:18.899Z,102910.69
2023-02-08T11:27:33.477Z,102908.41
2023-02-08T11:28:36.478Z,102920.94
2023-02-08T11:29:39.228Z,102919.53
2023-02-08T11:30:43.337Z,102912.75
2023-02-08T11:32:03.516Z,102899.38
2023-02-08T11:33:24.247Z,102906.81
2023-02-08T11:34:28.891Z,102910.53
2023-02-08T11:35:33.885Z,102902.47
2023-02-08T11:36:38.541Z,102914.22
2023-02-08T11:37:49.452Z,102910.50
2023-02-08T11:38:54.561Z,102905.66
2023-02-08T11:39:59.064Z,102926.22
2023-02-08T11:41:15.835Z,102890.97
2023-02-08T11:42:22.214Z,102905.13
2023-02-08T11:43:27.331Z,102902.41
2023-02-08T11:44:33.015Z,102906.97
2023-02-08T11:45:41.414Z,102905.22
2023-02-08T11:46:49.261Z,102901.91
2023-02-08T11:47:53.200Z,102896.63
2023-02-08T11:48:57.352Z,102911.00
2023-02-08T11:50:04.843Z,102911.25
2023-02-08T11:51:08.510Z,102920.59
2023-02-08T11:52:26.780Z,102914.41
2023-02-08T11:53:37.923Z,102911.66
2023-02-08T11:54:43.183Z,102932.47
2023-02-08T11:55:46.305Z,102905.72
2023-02-08T11:57:02.939Z,102921.25
2023-02-08T11:58:18.945Z,102910.09
2023-02-08T11:59:27.922Z,102913.78
2023-02-08T12:00:39.314Z,102916.53
2023-02-08T12:01:43.629Z,102926.31
2023-02-08T12:02:46.992Z,102921.94
2023-02-08T12:03:51.542Z,102906.78
2023-02-08T12:04:54.282Z,102893.59
2023-02-08T12:06:10.681Z,102905.44
2023-02-08T12:07:25.710Z,102909.34
2023-02-08T12:08:40.528Z,102891.97
2023-02-08T12:10:10.097Z,102903.91
2023-02-08T12:11:23.816Z,102899.50
2023-02-08T12:12:37.192Z,102902.44
2023-02-08T12:14:09.607Z,102908.41
2023-02-08T12:15:24.008Z,102899.25
2023-02-08T12:16:44.432Z,102896.53
2023-02-08T12:18:06.094Z,102906.16
2023-02-08T12:19:41.188Z,102900.72
2023-02-08T12:20:47.141Z,102894.00
2023-02-08T12:21:56.767Z,102864.44
2023-02-08T12:23:15.357Z,102883.28
2023-02-08T12:24:28.209Z,102865.53
2023-02-08T12:25:43.727Z,102887.72
2023-02-08T12:27:06.912Z,102886.72
2023-02-08T12:28:21.564Z,102872.13
2023-02-08T12:29:48.524Z,102873.66
2023-02-08T12:31:00.694Z,102884.97
2023-02-08T12:32:21.299Z,102866.25
2023-02-08T12:33:36.909Z,102870.19